This is the latest recevied weather packets stored in our database for station/object KA4YMY. If no packets are shown the sender has not sent any weather packets the latest 1 day(s).
| Time | Temp. | Humidity | Pressure | Rain* | Wind** | Luminosity | Snow |
|---|---|---|---|---|---|---|---|
| 1778092517 | 20° C | 90% | 1012.4 hPa | 1.02 mm | - | - | - |
| 1778081716 | 23.33° C | 62% | 1013.8 hPa | 0 mm | - | - | - |
| 1778081116 | 23.33° C | 64% | 1013.6 hPa | 0 mm | - | - | - |
| 1778079316 | 22.22° C | 68% | 1013.7 hPa | 0 mm | - | - | - |
| 1778078116 | 21.67° C | 67% | 1013.4 hPa | 0 mm | - | - | - |
| 1778076916 | 21.67° C | 69% | 1013.5 hPa | 0 mm | - | - | - |
| 1778076316 | 21.11° C | 70% | 1013.5 hPa | 0 mm | - | - | - |
| 1778073916 | 18.89° C | 75% | 1013.6 hPa | 0 mm | - | - | - |
| 1778073316 | 18.33° C | 76% | 1013.4 hPa | 0 mm | - | - | - |
| 1778072716 | 17.78° C | 76% | 1013.3 hPa | 0 mm | - | - | - |
| 1778072116 | 17.78° C | 76% | 1013.2 hPa | 0 mm | - | - | - |
| 1778071516 | 17.78° C | 76% | 1013.4 hPa | 0 mm | - | - | - |
| 1778070916 | 17.78° C | 76% | 1013.6 hPa | 0 mm | - | - | - |
| 1778070316 | 17.78° C | 76% | 1013.6 hPa | 0 mm | - | - | - |
| 1778069716 | 17.22° C | 76% | 1014 hPa | 0 mm | - | - | - |
| 1778069116 | 17.22° C | 76% | 1014.2 hPa | 0 mm | - | - | - |
| 1778068516 | 17.22° C | 76% | 1014.2 hPa | 0 mm | - | - | - |
| 1778067916 | 17.22° C | 76% | 1013.9 hPa | 0 mm | - | - | - |
| 1778067316 | 16.67° C | 77% | 1013.7 hPa | 0 mm | - | - | - |
| 1778066716 | 16.67° C | 77% | 1013.4 hPa | 0 mm | - | - | - |
| 1778065516 | 16.11° C | 78% | 1013.3 hPa | 0 mm | - | - | - |
| 1778064316 | 15.56° C | 78% | 1012.8 hPa | 0 mm | - | - | - |
| 1778063718 | 15.56° C | 78% | 1012.8 hPa | 0 mm | - | - | - |
| 1778061918 | 16.11° C | 77% | 1012.3 hPa | 0 mm | - | - | - |
| 1778057117 | 16.67° C | 75% | 1013.4 hPa | 0 mm | - | - | - |
* Rain latest hour (hover to see other rain measurements)
** Current wind speed in m/s (hover to see current wind gust speed)